createdAt,value
2019-04-22T00:00:01.001Z,21.19
2019-04-22T00:02:41.015Z,21.18
2019-04-22T00:05:13.137Z,21.16
2019-04-22T00:08:02.781Z,21.15
2019-04-22T00:13:28.408Z,21.14
2019-04-22T00:15:32.596Z,21.12
2019-04-22T00:18:17.892Z,21.12
2019-04-22T00:20:35.511Z,21.11
2019-04-22T00:23:15.540Z,21.11
2019-04-22T00:25:48.341Z,21.10
2019-04-22T00:28:19.477Z,21.09
2019-04-22T00:30:47.154Z,21.07
2019-04-22T00:33:20.407Z,21.08
2019-04-22T00:35:53.141Z,21.08
2019-04-22T00:38:23.450Z,21.07
2019-04-22T00:41:01.104Z,21.07
2019-04-22T00:43:28.850Z,21.08
2019-04-22T00:45:56.246Z,21.07
2019-04-22T00:51:06.126Z,21.06
2019-04-22T00:53:35.834Z,21.07
2019-04-22T00:56:20.184Z,21.07
2019-04-22T01:03:51.102Z,21.07
2019-04-22T01:08:53.741Z,21.06
2019-04-22T01:11:28.208Z,21.07
2019-04-22T01:13:50.172Z,21.06
2019-04-22T01:16:23.350Z,21.04
2019-04-22T01:18:49.013Z,21.05
2019-04-22T01:21:28.943Z,21.04
2019-04-22T01:23:51.897Z,21.03
2019-04-22T01:26:21.312Z,21.03
2019-04-22T01:28:50.096Z,21.03
2019-04-22T01:31:12.570Z,21.02
2019-04-22T01:33:44.164Z,21.02
2019-04-22T01:36:24.624Z,21.01
2019-04-22T01:39:01.996Z,21.00
2019-04-22T01:41:42.050Z,21.00
2019-04-22T01:44:15.838Z,20.99
2019-04-22T01:46:39.315Z,20.99
2019-04-22T01:49:10.409Z,20.98
2019-04-22T01:51:51.809Z,20.98
2019-04-22T01:54:19.710Z,20.98
2019-04-22T01:56:45.078Z,20.98
2019-04-22T01:59:06.234Z,20.97
2019-04-22T02:04:17.366Z,20.98
2019-04-22T02:06:48.241Z,20.97
2019-04-22T02:09:22.466Z,20.97
2019-04-22T02:14:20.375Z,20.97
2019-04-22T02:16:57.012Z,20.97
2019-04-22T02:19:45.598Z,20.97
2019-04-22T02:22:17.644Z,20.98
2019-04-22T02:24:46.718Z,20.97
2019-04-22T02:27:17.686Z,20.98
2019-04-22T02:32:33.876Z,20.96
2019-04-22T02:37:21.027Z,20.96
2019-04-22T02:39:57.660Z,20.95
2019-04-22T02:42:16.619Z,20.94
2019-04-22T02:47:34.244Z,20.94
2019-04-22T02:50:02.399Z,20.94
2019-04-22T02:52:31.150Z,20.94
2019-04-22T02:55:02.800Z,20.92
2019-04-22T03:00:09.724Z,20.92
2019-04-22T03:07:37.708Z,20.82
2019-04-22T03:17:41.434Z,20.19
2019-04-22T03:20:09.249Z,20.09
2019-04-22T03:27:52.181Z,19.93
2019-04-22T03:35:37.234Z,19.82
2019-04-22T03:40:30.860Z,19.75
2019-04-22T03:47:56.101Z,19.65
2019-04-22T03:53:06.245Z,19.57
2019-04-22T04:03:09.431Z,19.46
2019-04-22T04:13:08.411Z,19.30
2019-04-22T04:18:12.344Z,19.29
2019-04-22T04:20:45.252Z,19.29
2019-04-22T04:25:46.663Z,19.33
2019-04-22T04:30:56.661Z,19.32
2019-04-22T04:38:23.839Z,19.25
2019-04-22T04:43:27.890Z,19.19
2019-04-22T04:46:07.259Z,19.27
2019-04-22T04:48:39.200Z,19.45
2019-04-22T04:53:33.787Z,19.74
2019-04-22T04:56:02.192Z,19.84
2019-04-22T05:01:20.313Z,19.97
2019-04-22T05:06:18.509Z,20.05
2019-04-22T05:09:03.365Z,20.07
2019-04-22T05:11:16.281Z,20.13
2019-04-22T05:13:51.071Z,20.18
2019-04-22T05:16:27.025Z,20.25
2019-04-22T05:18:44.661Z,20.31
2019-04-22T05:21:16.439Z,20.36
2019-04-22T05:23:47.154Z,20.39
2019-04-22T05:26:20.508Z,20.43
2019-04-22T05:28:42.264Z,20.46
2019-04-22T05:31:15.442Z,20.49
2019-04-22T05:33:48.333Z,20.51
2019-04-22T05:36:26.447Z,20.54
2019-04-22T05:41:22.063Z,20.60
2019-04-22T05:43:50.184Z,20.62
2019-04-22T05:46:26.271Z,20.60
2019-04-22T05:48:58.708Z,20.59
2019-04-22T05:51:31.380Z,20.56
2019-04-22T05:54:05.809Z,20.49
2019-04-22T05:56:34.215Z,20.29
2019-04-22T06:01:39.005Z,20.05
2019-04-22T06:04:05.284Z,19.65
2019-04-22T06:06:29.262Z,19.21
2019-04-22T06:09:05.167Z,18.86
2019-04-22T06:11:29.399Z,18.65
2019-04-22T06:14:04.531Z,18.66
2019-04-22T06:16:38.092Z,18.87
2019-04-22T06:19:21.180Z,19.14
2019-04-22T06:24:16.802Z,19.55
2019-04-22T06:29:14.960Z,19.61
2019-04-22T06:36:54.204Z,19.65
2019-04-22T06:39:34.373Z,19.69
2019-04-22T06:41:59.116Z,19.76
2019-04-22T06:44:24.096Z,19.87
2019-04-22T06:46:53.763Z,19.95
2019-04-22T06:49:31.837Z,20.01
2019-04-22T06:51:55.565Z,20.05
2019-04-22T06:54:28.286Z,20.09
2019-04-22T06:56:57.677Z,20.15
2019-04-22T07:02:04.546Z,20.22
2019-04-22T07:04:29.769Z,20.26
2019-04-22T07:07:02.178Z,20.29
2019-04-22T07:09:38.605Z,20.32
2019-04-22T07:12:06.473Z,20.36
2019-04-22T07:14:35.650Z,20.38
2019-04-22T07:17:01.935Z,20.41
2019-04-22T07:19:38.331Z,20.44
2019-04-22T07:22:11.139Z,20.46
2019-04-22T07:27:10.584Z,20.52
2019-04-22T07:29:46.660Z,20.54
2019-04-22T07:32:17.186Z,20.56
2019-04-22T07:34:47.333Z,20.58
2019-04-22T07:39:45.618Z,20.60
2019-04-22T07:42:21.524Z,20.62
2019-04-22T07:44:53.249Z,20.64
2019-04-22T07:47:27.588Z,20.60
2019-04-22T07:49:52.213Z,20.54
2019-04-22T07:52:23.162Z,20.47
2019-04-22T07:54:52.527Z,20.46
2019-04-22T07:57:27.850Z,20.45
2019-04-22T08:00:02.987Z,20.45
2019-04-22T08:02:34.128Z,20.45
2019-04-22T08:07:31.646Z,20.29
2019-04-22T08:12:34.309Z,20.19
2019-04-22T08:14:59.784Z,20.16
2019-04-22T08:20:02.726Z,20.21
2019-04-22T08:22:33.967Z,20.25
2019-04-22T08:25:04.243Z,20.26
2019-04-22T08:27:39.562Z,20.28
2019-04-22T08:32:41.437Z,20.32
2019-04-22T08:35:18.683Z,20.33
2019-04-22T08:40:26.035Z,20.36
2019-04-22T08:42:50.331Z,20.34
2019-04-22T08:45:22.813Z,20.32
2019-04-22T08:47:42.273Z,20.31
2019-04-22T08:50:15.081Z,20.32
2019-04-22T08:52:54.861Z,20.32
2019-04-22T08:55:17.952Z,20.34
2019-04-22T08:58:10.091Z,20.34
2019-04-22T09:00:20.338Z,20.37
2019-04-22T09:03:02.586Z,20.39
2019-04-22T09:05:42.121Z,20.41
2019-04-22T09:08:01.446Z,20.44
2019-04-22T09:10:32.810Z,20.45
2019-04-22T09:13:02.454Z,20.44
2019-04-22T09:15:31.148Z,20.44
2019-04-22T09:18:02.344Z,20.44
2019-04-22T09:20:35.628Z,20.45
2019-04-22T09:23:07.569Z,20.47
2019-04-22T09:25:36.013Z,20.47
2019-04-22T09:28:02.012Z,20.46
2019-04-22T09:30:40.441Z,20.46
2019-04-22T09:33:14.164Z,20.46
2019-04-22T09:35:45.050Z,20.47
2019-04-22T09:40:40.429Z,20.50
2019-04-22T09:43:09.969Z,20.52
2019-04-22T09:45:43.343Z,20.55
2019-04-22T09:48:19.870Z,20.58
2019-04-22T09:50:48.042Z,20.60
2019-04-22T09:53:20.055Z,20.64
2019-04-22T09:55:41.726Z,20.65
2019-04-22T09:58:15.989Z,20.67
2019-04-22T10:01:00.524Z,20.69
2019-04-22T10:03:22.162Z,20.68
2019-04-22T10:05:49.940Z,20.71
2019-04-22T10:08:24.582Z,20.71
2019-04-22T10:10:48.944Z,20.73
2019-04-22T10:13:18.759Z,20.74
2019-04-22T10:15:49.655Z,20.74
2019-04-22T10:18:19.325Z,20.73
2019-04-22T10:20:46.067Z,20.75
2019-04-22T10:23:20.319Z,20.75
2019-04-22T10:25:45.950Z,20.76
2019-04-22T10:28:21.134Z,20.76
2019-04-22T10:30:57.532Z,20.77
2019-04-22T10:33:12.153Z,20.78
2019-04-22T10:35:19.912Z,20.78
2019-04-22T10:37:47.974Z,20.79
2019-04-22T10:40:17.759Z,20.79
2019-04-22T10:42:47.269Z,20.79
2019-04-22T10:45:16.525Z,20.79
2019-04-22T10:47:47.989Z,20.80
2019-04-22T10:50:18.576Z,20.81
2019-04-22T10:52:49.568Z,20.81
2019-04-22T10:55:19.315Z,20.81
2019-04-22T10:57:48.930Z,20.82
2019-04-22T11:00:19.594Z,20.83
2019-04-22T11:02:49.754Z,20.82
2019-04-22T11:05:20.254Z,20.83
2019-04-22T11:07:56.799Z,20.84
2019-04-22T11:10:36.779Z,20.84
2019-04-22T11:12:51.942Z,20.84
2019-04-22T11:15:22.435Z,20.84
2019-04-22T11:17:53.454Z,20.85
2019-04-22T11:20:23.787Z,20.85
2019-04-22T11:22:53.268Z,20.86
2019-04-22T11:25:23.627Z,20.85
2019-04-22T11:27:53.698Z,20.87
2019-04-22T11:30:27.951Z,20.88
2019-04-22T11:32:56.330Z,20.88
2019-04-22T11:35:25.937Z,20.88
2019-04-22T11:37:55.226Z,20.89
2019-04-22T11:40:33.792Z,20.88
2019-04-22T11:42:56.593Z,20.89
2019-04-22T11:45:27.244Z,20.90
2019-04-22T11:47:57.267Z,20.90
2019-04-22T11:50:28.085Z,20.90
2019-04-22T11:52:58.573Z,20.90
2019-04-22T11:55:28.828Z,20.90
2019-04-22T11:57:58.918Z,20.91
2019-04-22T12:00:36.989Z,20.92
2019-04-22T12:03:07.098Z,20.91
2019-04-22T12:05:37.890Z,20.91
2019-04-22T12:08:09.373Z,20.92
2019-04-22T12:10:48.298Z,20.92
2019-04-22T12:13:12.235Z,20.94
2019-04-22T12:15:42.829Z,20.94
2019-04-22T12:18:13.082Z,20.95
2019-04-22T12:20:43.377Z,20.95
2019-04-22T12:23:12.947Z,20.96
2019-04-22T12:25:51.644Z,20.96
2019-04-22T12:28:14.714Z,20.96
2019-04-22T12:30:45.782Z,20.96
2019-04-22T12:33:15.116Z,20.96
2019-04-22T12:35:46.444Z,20.97
2019-04-22T12:38:17.001Z,20.97
2019-04-22T12:40:54.433Z,20.96
2019-04-22T12:43:20.588Z,20.96
2019-04-22T12:45:49.992Z,20.96
2019-04-22T12:48:21.334Z,20.97
2019-04-22T12:50:54.218Z,20.95
2019-04-22T12:53:25.709Z,20.97
2019-04-22T12:55:55.203Z,20.97
2019-04-22T12:58:25.566Z,20.96
2019-04-22T13:00:55.218Z,20.97
2019-04-22T13:03:24.781Z,20.97
2019-04-22T13:05:54.315Z,20.97
2019-04-22T13:08:23.519Z,20.97
2019-04-22T13:10:59.364Z,20.97
2019-04-22T13:13:24.977Z,20.98
2019-04-22T13:15:55.070Z,20.98
2019-04-22T13:18:36.685Z,20.98
2019-04-22T13:20:56.674Z,20.98
2019-04-22T13:23:27.454Z,20.98
2019-04-22T13:25:57.041Z,20.98
2019-04-22T13:28:27.239Z,20.99
2019-04-22T13:30:58.505Z,21.00
2019-04-22T13:33:28.684Z,21.00
2019-04-22T13:35:59.570Z,20.99
2019-04-22T13:38:31.249Z,20.99
2019-04-22T13:41:18.492Z,20.99
2019-04-22T13:43:32.812Z,20.99
2019-04-22T13:46:03.868Z,20.99
2019-04-22T13:48:52.905Z,21.00
2019-04-22T13:51:36.216Z,21.01
2019-04-22T13:54:37.243Z,21.00
2019-04-22T13:56:25.191Z,21.00
2019-04-22T13:58:54.134Z,21.01
2019-04-22T14:01:16.523Z,21.01
2019-04-22T14:04:04.788Z,21.01
2019-04-22T14:06:34.835Z,21.01
2019-04-22T14:09:07.414Z,21.02
2019-04-22T14:11:47.409Z,21.02
2019-04-22T14:14:09.207Z,21.02
2019-04-22T14:16:38.718Z,21.03
2019-04-22T14:19:09.897Z,21.03
2019-04-22T14:21:41.088Z,21.02
2019-04-22T14:24:12.494Z,21.03
2019-04-22T14:26:54.877Z,21.03
2019-04-22T14:29:13.663Z,21.03
2019-04-22T14:31:44.522Z,21.03
2019-04-22T14:34:15.548Z,21.03
2019-04-22T14:36:47.610Z,21.04
2019-04-22T14:39:17.809Z,21.04
2019-04-22T14:42:12.475Z,21.04
2019-04-22T14:47:15.591Z,21.06
2019-04-22T14:49:43.451Z,21.06
2019-04-22T14:52:15.099Z,21.06
2019-04-22T14:54:40.384Z,21.06
2019-04-22T14:56:56.785Z,21.07
2019-04-22T14:59:27.238Z,21.06
2019-04-22T15:01:58.167Z,21.07
2019-04-22T15:04:28.936Z,21.08
2019-04-22T15:06:59.093Z,21.08
2019-04-22T15:09:30.002Z,21.09
2019-04-22T15:12:14.537Z,21.08
2019-04-22T15:14:33.156Z,21.08
2019-04-22T15:17:29.075Z,21.08
2019-04-22T15:20:07.855Z,21.09
2019-04-22T15:22:38.771Z,21.08
2019-04-22T15:25:08.425Z,21.08
2019-04-22T15:27:39.317Z,21.10
2019-04-22T15:30:09.722Z,21.09
2019-04-22T15:32:39.377Z,21.10
2019-04-22T15:35:09.148Z,21.10
2019-04-22T15:37:39.486Z,21.10
2019-04-22T15:40:09.013Z,21.10
2019-04-22T15:42:41.949Z,21.11
2019-04-22T15:45:11.808Z,21.11
2019-04-22T15:47:41.895Z,21.11
2019-04-22T15:50:12.220Z,21.11
2019-04-22T15:52:47.855Z,21.12
2019-04-22T15:55:14.409Z,21.12
2019-04-22T15:57:45.662Z,21.12
2019-04-22T16:00:29.437Z,21.12
2019-04-22T16:02:47.797Z,21.12
2019-04-22T16:05:17.404Z,21.12
2019-04-22T16:07:46.905Z,21.11
2019-04-22T16:10:17.654Z,21.11
2019-04-22T16:12:57.524Z,21.12
2019-04-22T16:15:20.485Z,21.10
2019-04-22T16:17:50.814Z,21.11
2019-04-22T16:20:21.638Z,21.10
2019-04-22T16:23:20.830Z,21.10
2019-04-22T16:26:07.573Z,21.11
2019-04-22T16:28:37.633Z,21.10
2019-04-22T16:31:07.347Z,21.11
2019-04-22T16:33:39.876Z,21.11
2019-04-22T16:36:08.999Z,21.11
2019-04-22T16:38:40.738Z,21.11
2019-04-22T16:41:12.691Z,21.10
2019-04-22T16:43:42.860Z,21.10
2019-04-22T16:46:13.735Z,21.11
2019-04-22T16:48:43.519Z,21.10
2019-04-22T16:51:13.857Z,21.10
2019-04-22T16:53:43.588Z,21.10
2019-04-22T16:56:15.029Z,21.10
2019-04-22T16:58:46.413Z,21.11
2019-04-22T17:01:54.454Z,21.10
2019-04-22T17:04:43.050Z,21.11
2019-04-22T17:07:16.030Z,21.11
2019-04-22T17:09:45.886Z,21.10
2019-04-22T17:12:16.186Z,21.09
2019-04-22T17:14:54.084Z,21.09
2019-04-22T17:17:18.227Z,21.09
2019-04-22T17:19:49.207Z,21.08
2019-04-22T17:22:19.709Z,21.07
2019-04-22T17:24:49.906Z,21.07
2019-04-22T17:27:20.222Z,21.06
2019-04-22T17:29:50.547Z,21.05
2019-04-22T17:32:22.927Z,21.05
2019-04-22T17:34:51.879Z,21.05
2019-04-22T17:37:26.536Z,21.02
2019-04-22T17:40:09.738Z,21.02
2019-04-22T17:42:42.511Z,21.03
2019-04-22T17:45:22.313Z,21.03
2019-04-22T17:48:14.109Z,21.03
2019-04-22T17:53:27.971Z,21.04
2019-04-22T17:56:02.090Z,21.05
2019-04-22T17:58:25.629Z,21.04
2019-04-22T18:01:07.160Z,21.04
2019-04-22T18:03:22.701Z,21.03
2019-04-22T18:05:50.109Z,21.04
2019-04-22T18:08:36.463Z,21.03
2019-04-22T18:11:05.931Z,21.03
2019-04-22T18:13:40.988Z,21.04
2019-04-22T18:16:10.199Z,21.03
2019-04-22T18:18:43.330Z,21.03
2019-04-22T18:21:09.183Z,21.04
2019-04-22T18:23:28.358Z,21.03
2019-04-22T18:26:14.731Z,21.02
2019-04-22T18:28:47.857Z,21.01
2019-04-22T18:31:13.895Z,21.01
2019-04-22T18:33:46.527Z,21.02
2019-04-22T18:36:14.094Z,21.01
2019-04-22T18:38:54.791Z,21.00
2019-04-22T18:41:15.188Z,21.00
2019-04-22T18:43:51.779Z,20.99
2019-04-22T18:46:21.281Z,20.98
2019-04-22T18:48:53.929Z,20.98
2019-04-22T18:51:34.807Z,20.97
2019-04-22T18:54:08.811Z,20.97
2019-04-22T18:56:46.603Z,20.95
2019-04-22T18:59:10.560Z,20.94
2019-04-22T19:01:33.567Z,20.94
2019-04-22T19:04:11.642Z,20.94
2019-04-22T19:06:56.354Z,20.93
2019-04-22T19:09:38.367Z,20.93
2019-04-22T19:12:08.845Z,20.92
2019-04-22T19:14:43.711Z,20.93
2019-04-22T19:17:09.763Z,20.92
2019-04-22T19:22:03.984Z,20.90
2019-04-22T19:24:34.142Z,20.90
2019-04-22T19:27:08.731Z,20.90
2019-04-22T19:29:49.278Z,20.89
2019-04-22T19:32:12.985Z,20.88
2019-04-22T19:34:46.105Z,20.88
2019-04-22T19:37:12.971Z,20.87
2019-04-22T19:39:56.023Z,20.85
2019-04-22T19:42:28.639Z,20.84
2019-04-22T19:44:50.239Z,20.84
2019-04-22T19:47:40.155Z,20.83
2019-04-22T19:49:58.389Z,20.83
2019-04-22T19:52:24.774Z,20.83
2019-04-22T19:54:57.899Z,20.82
2019-04-22T19:57:22.611Z,20.81
2019-04-22T19:59:55.906Z,20.80
2019-04-22T20:02:59.194Z,20.79
2019-04-22T20:05:50.995Z,20.78
2019-04-22T20:08:23.298Z,20.78
2019-04-22T20:10:51.095Z,20.76
2019-04-22T20:13:31.113Z,20.75
2019-04-22T20:15:48.995Z,20.76
2019-04-22T20:20:59.628Z,20.73
2019-04-22T20:23:22.934Z,20.73
2019-04-22T20:25:50.993Z,20.72
2019-04-22T20:28:35.804Z,20.71
2019-04-22T20:31:03.228Z,20.70
2019-04-22T20:33:35.380Z,20.70
2019-04-22T20:36:13.009Z,20.69
2019-04-22T20:38:34.322Z,20.68
2019-04-22T20:41:08.821Z,20.67
2019-04-22T20:43:50.256Z,20.66
2019-04-22T20:46:19.068Z,20.69
2019-04-22T20:48:53.162Z,20.68
2019-04-22T20:51:14.140Z,20.67
2019-04-22T20:53:49.082Z,20.66
2019-04-22T20:56:14.657Z,20.64
2019-04-22T20:58:54.695Z,20.64
2019-04-22T21:01:21.046Z,20.64
2019-04-22T21:03:42.029Z,20.66
2019-04-22T21:06:23.172Z,20.68
2019-04-22T21:09:02.199Z,20.68
2019-04-22T21:11:27.788Z,20.69
2019-04-22T21:14:01.393Z,20.70
2019-04-22T21:16:40.028Z,20.71
2019-04-22T21:19:11.132Z,20.72
2019-04-22T21:21:41.390Z,20.74
2019-04-22T21:23:59.658Z,20.73
2019-04-22T21:26:33.564Z,20.73
2019-04-22T21:29:07.257Z,20.73
2019-04-22T21:31:48.256Z,20.73
2019-04-22T21:34:13.033Z,20.73
2019-04-22T21:36:50.672Z,20.73
2019-04-22T21:39:15.594Z,20.73
2019-04-22T21:41:47.315Z,20.72
2019-04-22T21:44:14.000Z,20.71
2019-04-22T21:47:00.583Z,20.71
2019-04-22T21:49:24.537Z,20.70
2019-04-22T21:51:53.330Z,20.70
2019-04-22T21:54:26.733Z,20.69
2019-04-22T21:57:18.940Z,20.69
2019-04-22T21:59:43.173Z,20.68
2019-04-22T22:02:24.883Z,20.68
2019-04-22T22:04:47.291Z,20.67
2019-04-22T22:07:09.788Z,20.66
2019-04-22T22:09:55.229Z,20.66
2019-04-22T22:12:26.601Z,20.65
2019-04-22T22:14:55.853Z,20.64
2019-04-22T22:17:27.277Z,20.64
2019-04-22T22:19:57.959Z,20.64
2019-04-22T22:22:45.516Z,20.64
2019-04-22T22:25:04.288Z,20.64
2019-04-22T22:27:37.198Z,20.65
2019-04-22T22:30:19.185Z,20.65
2019-04-22T22:32:41.520Z,20.64
2019-04-22T22:35:07.899Z,20.64
2019-04-22T22:37:30.859Z,20.64
2019-04-22T22:40:01.271Z,20.63
2019-04-22T22:42:33.653Z,20.62
2019-04-22T22:45:08.875Z,20.62
2019-04-22T22:47:44.339Z,20.63
2019-04-22T22:50:25.235Z,20.63
2019-04-22T22:52:58.983Z,20.63
2019-04-22T22:55:21.726Z,20.62
2019-04-22T22:57:56.622Z,20.60
2019-04-22T23:00:19.621Z,20.60
2019-04-22T23:03:11.038Z,20.60
2019-04-22T23:05:35.435Z,20.60
2019-04-22T23:08:05.962Z,20.59
2019-04-22T23:10:34.109Z,20.58
2019-04-22T23:13:06.813Z,20.57
2019-04-22T23:15:27.471Z,20.57
2019-04-22T23:17:43.704Z,20.57
2019-04-22T23:20:13.574Z,20.55
2019-04-22T23:23:07.886Z,20.55
2019-04-22T23:25:37.868Z,20.54
2019-04-22T23:28:14.594Z,20.51
2019-04-22T23:31:07.527Z,20.51
2019-04-22T23:33:49.463Z,20.50
2019-04-22T23:36:22.852Z,20.50
2019-04-22T23:39:03.683Z,20.49
2019-04-22T23:44:10.005Z,20.50
2019-04-22T23:47:04.686Z,20.49
2019-04-22T23:49:32.096Z,20.50
2019-04-22T23:52:16.378Z,20.50
2019-04-22T23:54:50.774Z,20.50
2019-04-22T23:57:16.693Z,20.50
